sensor_id;sensor_type;location;lat;lon;timestamp;P1;durP1;ratioP1;P2;durP2;ratioP2
2123;SDS011;1068;52.460;13.528;2024-01-30T00:01:23;14.50;;;6.93;;
2123;SDS011;1068;52.460;13.528;2024-01-30T00:03:50;7.40;;;6.65;;
2123;SDS011;1068;52.460;13.528;2024-01-30T00:06:18;6.70;;;6.10;;
2123;SDS011;1068;52.460;13.528;2024-01-30T00:08:45;8.45;;;6.97;;
2123;SDS011;1068;52.460;13.528;2024-01-30T00:11:15;7.65;;;6.82;;
2123;SDS011;1068;52.460;13.528;2024-01-30T00:13:42;7.95;;;6.65;;
2123;SDS011;1068;52.460;13.528;2024-01-30T00:16:19;7.28;;;5.78;;
2123;SDS011;1068;52.460;13.528;2024-01-30T00:18:46;10.60;;;6.40;;
2123;SDS011;1068;52.460;13.528;2024-01-30T00:21:13;10.02;;;6.18;;
2123;SDS011;1068;52.460;13.528;2024-01-30T00:23:40;8.80;;;5.70;;
2123;SDS011;1068;52.460;13.528;2024-01-30T00:26:07;7.25;;;5.50;;
2123;SDS011;1068;52.460;13.528;2024-01-30T00:28:35;4.97;;;4.47;;
2123;SDS011;1068;52.460;13.528;2024-01-30T00:31:02;10.27;;;5.80;;
2123;SDS011;1068;52.460;13.528;2024-01-30T00:33:30;7.50;;;4.82;;
2123;SDS011;1068;52.460;13.528;2024-01-30T00:35:57;8.70;;;5.60;;
2123;SDS011;1068;52.460;13.528;2024-01-30T00:38:24;5.28;;;4.78;;
2123;SDS011;1068;52.460;13.528;2024-01-30T00:40:50;7.93;;;4.80;;
2123;SDS011;1068;52.460;13.528;2024-01-30T00:43:17;5.20;;;4.70;;
2123;SDS011;1068;52.460;13.528;2024-01-30T00:45:47;8.52;;;5.47;;
2123;SDS011;1068;52.460;13.528;2024-01-30T00:48:15;6.18;;;4.55;;
2123;SDS011;1068;52.460;13.528;2024-01-30T00:50:42;6.05;;;5.45;;
2123;SDS011;1068;52.460;13.528;2024-01-30T00:53:09;5.55;;;4.80;;
2123;SDS011;1068;52.460;13.528;2024-01-30T00:55:36;7.10;;;5.10;;
2123;SDS011;1068;52.460;13.528;2024-01-30T00:58:03;6.85;;;5.05;;
2123;SDS011;1068;52.460;13.528;2024-01-30T01:00:31;6.70;;;5.35;;
2123;SDS011;1068;52.460;13.528;2024-01-30T01:02:59;6.90;;;4.78;;
2123;SDS011;1068;52.460;13.528;2024-01-30T01:05:26;9.18;;;4.80;;
2123;SDS011;1068;52.460;13.528;2024-01-30T01:07:54;6.43;;;5.75;;
2123;SDS011;1068;52.460;13.528;2024-01-30T01:10:21;8.07;;;5.45;;
2123;SDS011;1068;52.460;13.528;2024-01-30T01:12:48;5.85;;;5.25;;
2123;SDS011;1068;52.460;13.528;2024-01-30T01:15:15;6.65;;;5.93;;
2123;SDS011;1068;52.460;13.528;2024-01-30T01:17:42;7.80;;;5.18;;
2123;SDS011;1068;52.460;13.528;2024-01-30T01:20:10;11.85;;;4.85;;
2123;SDS011;1068;52.460;13.528;2024-01-30T01:22:38;7.43;;;6.22;;
2123;SDS011;1068;52.460;13.528;2024-01-30T01:25:05;12.43;;;6.47;;
2123;SDS011;1068;52.460;13.528;2024-01-30T01:27:33;8.95;;;5.90;;
2123;SDS011;1068;52.460;13.528;2024-01-30T01:30:05;6.85;;;4.97;;
2123;SDS011;1068;52.460;13.528;2024-01-30T01:32:34;8.73;;;5.32;;
2123;SDS011;1068;52.460;13.528;2024-01-30T01:35:01;7.82;;;5.32;;
2123;SDS011;1068;52.460;13.528;2024-01-30T01:37:31;9.43;;;5.18;;
2123;SDS011;1068;52.460;13.528;2024-01-30T01:39:59;7.45;;;5.70;;
2123;SDS011;1068;52.460;13.528;2024-01-30T01:42:26;6.57;;;5.25;;
2123;SDS011;1068;52.460;13.528;2024-01-30T01:44:53;12.68;;;6.35;;
2123;SDS011;1068;52.460;13.528;2024-01-30T01:47:20;8.80;;;6.00;;
2123;SDS011;1068;52.460;13.528;2024-01-30T01:49:47;8.05;;;5.80;;
2123;SDS011;1068;52.460;13.528;2024-01-30T01:52:14;8.95;;;6.15;;
2123;SDS011;1068;52.460;13.528;2024-01-30T01:54:43;8.18;;;6.07;;
2123;SDS011;1068;52.460;13.528;2024-01-30T01:57:10;7.25;;;6.50;;
2123;SDS011;1068;52.460;13.528;2024-01-30T01:59:37;8.23;;;6.75;;
2123;SDS011;1068;52.460;13.528;2024-01-30T02:02:04;9.55;;;5.93;;
2123;SDS011;1068;52.460;13.528;2024-01-30T02:04:31;8.43;;;6.68;;
2123;SDS011;1068;52.460;13.528;2024-01-30T02:06:58;8.30;;;7.05;;
2123;SDS011;1068;52.460;13.528;2024-01-30T02:09:25;7.50;;;5.90;;
2123;SDS011;1068;52.460;13.528;2024-01-30T02:11:53;8.48;;;6.10;;
2123;SDS011;1068;52.460;13.528;2024-01-30T02:14:20;10.05;;;6.25;;
2123;SDS011;1068;52.460;13.528;2024-01-30T02:16:47;9.85;;;5.78;;
2123;SDS011;1068;52.460;13.528;2024-01-30T02:19:14;7.75;;;6.15;;
2123;SDS011;1068;52.460;13.528;2024-01-30T02:21:42;9.88;;;5.80;;
2123;SDS011;1068;52.460;13.528;2024-01-30T02:24:10;9.52;;;6.30;;
2123;SDS011;1068;52.460;13.528;2024-01-30T02:26:37;8.77;;;6.22;;
2123;SDS011;1068;52.460;13.528;2024-01-30T02:29:04;8.57;;;6.35;;
2123;SDS011;1068;52.460;13.528;2024-01-30T02:31:31;10.05;;;6.78;;
2123;SDS011;1068;52.460;13.528;2024-01-30T02:33:58;8.02;;;6.15;;
2123;SDS011;1068;52.460;13.528;2024-01-30T02:36:25;9.38;;;6.32;;
2123;SDS011;1068;52.460;13.528;2024-01-30T02:38:53;10.45;;;6.10;;
2123;SDS011;1068;52.460;13.528;2024-01-30T02:41:20;6.88;;;6.15;;
2123;SDS011;1068;52.460;13.528;2024-01-30T02:43:47;9.55;;;6.50;;
2123;SDS011;1068;52.460;13.528;2024-01-30T02:46:14;10.23;;;6.93;;
2123;SDS011;1068;52.460;13.528;2024-01-30T02:48:41;8.75;;;5.82;;
2123;SDS011;1068;52.460;13.528;2024-01-30T02:51:08;7.55;;;6.65;;
2123;SDS011;1068;52.460;13.528;2024-01-30T02:53:35;7.30;;;6.60;;
2123;SDS011;1068;52.460;13.528;2024-01-30T02:56:03;8.07;;;6.30;;
2123;SDS011;1068;52.460;13.528;2024-01-30T02:58:30;7.22;;;6.47;;
2123;SDS011;1068;52.460;13.528;2024-01-30T03:00:57;14.30;;;7.15;;
2123;SDS011;1068;52.460;13.528;2024-01-30T03:03:24;11.15;;;6.35;;
2123;SDS011;1068;52.460;13.528;2024-01-30T03:05:51;7.80;;;6.07;;
2123;SDS011;1068;52.460;13.528;2024-01-30T03:08:18;9.68;;;6.72;;
2123;SDS011;1068;52.460;13.528;2024-01-30T03:10:46;10.25;;;6.85;;
2123;SDS011;1068;52.460;13.528;2024-01-30T03:13:14;10.43;;;7.05;;
2123;SDS011;1068;52.460;13.528;2024-01-30T03:15:41;7.68;;;6.60;;
2123;SDS011;1068;52.460;13.528;2024-01-30T03:18:08;10.88;;;7.50;;
2123;SDS011;1068;52.460;13.528;2024-01-30T03:20:35;10.75;;;6.75;;
2123;SDS011;1068;52.460;13.528;2024-01-30T03:23:02;11.30;;;6.78;;
2123;SDS011;1068;52.460;13.528;2024-01-30T03:25:29;8.15;;;6.55;;
2123;SDS011;1068;52.460;13.528;2024-01-30T03:27:56;8.75;;;6.30;;
2123;SDS011;1068;52.460;13.528;2024-01-30T03:30:24;10.57;;;6.47;;
2123;SDS011;1068;52.460;13.528;2024-01-30T03:32:51;12.70;;;6.50;;
2123;SDS011;1068;52.460;13.528;2024-01-30T03:35:18;9.60;;;6.22;;
2123;SDS011;1068;52.460;13.528;2024-01-30T03:37:45;9.18;;;6.40;;
2123;SDS011;1068;52.460;13.528;2024-01-30T03:40:12;7.45;;;5.50;;
2123;SDS011;1068;52.460;13.528;2024-01-30T03:42:40;8.20;;;7.22;;
2123;SDS011;1068;52.460;13.528;2024-01-30T03:45:07;8.70;;;6.90;;
2123;SDS011;1068;52.460;13.528;2024-01-30T03:47:35;6.57;;;5.10;;
2123;SDS011;1068;52.460;13.528;2024-01-30T03:50:02;10.90;;;7.20;;
2123;SDS011;1068;52.460;13.528;2024-01-30T03:52:30;9.85;;;6.60;;
2123;SDS011;1068;52.460;13.528;2024-01-30T03:54:57;10.85;;;6.85;;
2123;SDS011;1068;52.460;13.528;2024-01-30T03:57:24;9.98;;;7.65;;
2123;SDS011;1068;52.460;13.528;2024-01-30T03:59:51;8.68;;;6.72;;
2123;SDS011;1068;52.460;13.528;2024-01-30T04:02:19;8.77;;;6.30;;
2123;SDS011;1068;52.460;13.528;2024-01-30T04:04:47;12.35;;;7.82;;
2123;SDS011;1068;52.460;13.528;2024-01-30T04:07:14;9.38;;;7.22;;
2123;SDS011;1068;52.460;13.528;2024-01-30T04:09:41;10.07;;;6.70;;
2123;SDS011;1068;52.460;13.528;2024-01-30T04:12:08;8.82;;;6.88;;
2123;SDS011;1068;52.460;13.528;2024-01-30T04:14:37;12.50;;;7.75;;
2123;SDS011;1068;52.460;13.528;2024-01-30T04:17:04;8.98;;;7.60;;
2123;SDS011;1068;52.460;13.528;2024-01-30T04:19:31;8.30;;;6.72;;
2123;SDS011;1068;52.460;13.528;2024-01-30T04:22:00;10.13;;;6.95;;
2123;SDS011;1068;52.460;13.528;2024-01-30T04:24:26;10.70;;;6.35;;
2123;SDS011;1068;52.460;13.528;2024-01-30T04:26:53;8.55;;;6.32;;
2123;SDS011;1068;52.460;13.528;2024-01-30T04:29:20;11.73;;;7.65;;
2123;SDS011;1068;52.460;13.528;2024-01-30T04:31:48;8.63;;;6.80;;
2123;SDS011;1068;52.460;13.528;2024-01-30T04:34:15;9.65;;;7.30;;
2123;SDS011;1068;52.460;13.528;2024-01-30T04:36:43;9.98;;;7.07;;
2123;SDS011;1068;52.460;13.528;2024-01-30T04:39:12;8.63;;;6.80;;
2123;SDS011;1068;52.460;13.528;2024-01-30T04:41:39;9.00;;;7.05;;
2123;SDS011;1068;52.460;13.528;2024-01-30T04:44:06;8.93;;;7.80;;
2123;SDS011;1068;52.460;13.528;2024-01-30T04:46:33;9.85;;;7.03;;
2123;SDS011;1068;52.460;13.528;2024-01-30T04:49:00;10.80;;;7.15;;
2123;SDS011;1068;52.460;13.528;2024-01-30T04:51:28;8.82;;;7.93;;
2123;SDS011;1068;52.460;13.528;2024-01-30T04:53:55;11.18;;;7.60;;
2123;SDS011;1068;52.460;13.528;2024-01-30T04:56:23;12.48;;;6.95;;
2123;SDS011;1068;52.460;13.528;2024-01-30T04:58:50;8.90;;;7.35;;
2123;SDS011;1068;52.460;13.528;2024-01-30T05:01:17;7.97;;;7.05;;
2123;SDS011;1068;52.460;13.528;2024-01-30T05:03:44;14.50;;;7.22;;
2123;SDS011;1068;52.460;13.528;2024-01-30T05:06:11;8.27;;;6.85;;
2123;SDS011;1068;52.460;13.528;2024-01-30T05:08:38;15.43;;;9.95;;
2123;SDS011;1068;52.460;13.528;2024-01-30T05:11:05;11.82;;;9.35;;
2123;SDS011;1068;52.460;13.528;2024-01-30T05:13:33;12.38;;;8.82;;
2123;SDS011;1068;52.460;13.528;2024-01-30T05:16:01;9.35;;;8.32;;
2123;SDS011;1068;52.460;13.528;2024-01-30T05:18:29;13.50;;;7.60;;
2123;SDS011;1068;52.460;13.528;2024-01-30T05:20:56;11.07;;;8.05;;
2123;SDS011;1068;52.460;13.528;2024-01-30T05:23:23;10.25;;;7.57;;
2123;SDS011;1068;52.460;13.528;2024-01-30T05:25:50;11.18;;;7.45;;
2123;SDS011;1068;52.460;13.528;2024-01-30T05:28:17;9.68;;;7.40;;
2123;SDS011;1068;52.460;13.528;2024-01-30T05:30:45;12.40;;;7.88;;
2123;SDS011;1068;52.460;13.528;2024-01-30T05:33:12;9.57;;;8.23;;
2123;SDS011;1068;52.460;13.528;2024-01-30T05:35:39;11.73;;;8.40;;
2123;SDS011;1068;52.460;13.528;2024-01-30T05:38:06;13.05;;;7.43;;
2123;SDS011;1068;52.460;13.528;2024-01-30T05:40:33;18.48;;;8.07;;
2123;SDS011;1068;52.460;13.528;2024-01-30T05:42:59;9.68;;;7.70;;
2123;SDS011;1068;52.460;13.528;2024-01-30T05:45:27;12.48;;;8.55;;
2123;SDS011;1068;52.460;13.528;2024-01-30T05:47:56;9.55;;;7.60;;
2123;SDS011;1068;52.460;13.528;2024-01-30T05:50:23;11.10;;;7.90;;
2123;SDS011;1068;52.460;13.528;2024-01-30T05:52:51;14.13;;;9.18;;
2123;SDS011;1068;52.460;13.528;2024-01-30T05:55:18;10.82;;;7.90;;
2123;SDS011;1068;52.460;13.528;2024-01-30T05:57:45;8.70;;;7.22;;
2123;SDS011;1068;52.460;13.528;2024-01-30T06:00:12;11.65;;;7.93;;
2123;SDS011;1068;52.460;13.528;2024-01-30T06:02:39;8.20;;;7.40;;
2123;SDS011;1068;52.460;13.528;2024-01-30T06:05:08;13.23;;;8.90;;
2123;SDS011;1068;52.460;13.528;2024-01-30T06:07:35;11.38;;;8.52;;
2123;SDS011;1068;52.460;13.528;2024-01-30T06:10:02;15.68;;;10.20;;
2123;SDS011;1068;52.460;13.528;2024-01-30T06:12:29;11.07;;;8.35;;
2123;SDS011;1068;52.460;13.528;2024-01-30T06:14:56;11.30;;;8.45;;
2123;SDS011;1068;52.460;13.528;2024-01-30T06:17:23;11.23;;;7.78;;
2123;SDS011;1068;52.460;13.528;2024-01-30T06:19:50;21.90;;;12.48;;
2123;SDS011;1068;52.460;13.528;2024-01-30T06:22:18;12.95;;;10.65;;
2123;SDS011;1068;52.460;13.528;2024-01-30T06:24:45;11.38;;;8.45;;
2123;SDS011;1068;52.460;13.528;2024-01-30T06:27:13;11.20;;;6.78;;
2123;SDS011;1068;52.460;13.528;2024-01-30T06:29:41;14.85;;;9.18;;
2123;SDS011;1068;52.460;13.528;2024-01-30T06:32:07;9.20;;;8.00;;
2123;SDS011;1068;52.460;13.528;2024-01-30T06:34:34;10.65;;;8.23;;
2123;SDS011;1068;52.460;13.528;2024-01-30T06:37:03;12.02;;;8.57;;
2123;SDS011;1068;52.460;13.528;2024-01-30T06:39:31;12.90;;;8.45;;
2123;SDS011;1068;52.460;13.528;2024-01-30T06:41:58;15.23;;;8.27;;
2123;SDS011;1068;52.460;13.528;2024-01-30T06:44:25;12.55;;;9.02;;
2123;SDS011;1068;52.460;13.528;2024-01-30T06:46:53;12.63;;;8.73;;
2123;SDS011;1068;52.460;13.528;2024-01-30T06:49:20;11.63;;;8.10;;
2123;SDS011;1068;52.460;13.528;2024-01-30T06:51:47;10.13;;;8.13;;
2123;SDS011;1068;52.460;13.528;2024-01-30T06:54:14;10.48;;;7.35;;
2123;SDS011;1068;52.460;13.528;2024-01-30T06:56:42;12.68;;;8.20;;
2123;SDS011;1068;52.460;13.528;2024-01-30T06:59:09;14.77;;;7.93;;
2123;SDS011;1068;52.460;13.528;2024-01-30T07:01:36;12.88;;;7.95;;
2123;SDS011;1068;52.460;13.528;2024-01-30T07:04:03;11.45;;;8.50;;
2123;SDS011;1068;52.460;13.528;2024-01-30T07:06:30;14.23;;;8.63;;
2123;SDS011;1068;52.460;13.528;2024-01-30T07:08:57;15.15;;;9.10;;
2123;SDS011;1068;52.460;13.528;2024-01-30T07:11:24;13.60;;;8.65;;
2123;SDS011;1068;52.460;13.528;2024-01-30T07:13:53;14.63;;;8.32;;
2123;SDS011;1068;52.460;13.528;2024-01-30T07:16:21;10.20;;;7.85;;
2123;SDS011;1068;52.460;13.528;2024-01-30T07:18:48;15.50;;;8.23;;
2123;SDS011;1068;52.460;13.528;2024-01-30T07:21:15;9.18;;;7.70;;
2123;SDS011;1068;52.460;13.528;2024-01-30T07:23:42;9.05;;;7.03;;
2123;SDS011;1068;52.460;13.528;2024-01-30T07:26:09;18.15;;;7.55;;
2123;SDS011;1068;52.460;13.528;2024-01-30T07:28:36;8.57;;;7.30;;
2123;SDS011;1068;52.460;13.528;2024-01-30T07:31:04;12.65;;;9.32;;
2123;SDS011;1068;52.460;13.528;2024-01-30T07:33:31;11.88;;;8.40;;
2123;SDS011;1068;52.460;13.528;2024-01-30T07:35:58;11.40;;;9.07;;
2123;SDS011;1068;52.460;13.528;2024-01-30T07:38:25;10.27;;;9.00;;
2123;SDS011;1068;52.460;13.528;2024-01-30T07:40:52;10.27;;;8.95;;
2123;SDS011;1068;52.460;13.528;2024-01-30T07:43:19;11.65;;;8.52;;
2123;SDS011;1068;52.460;13.528;2024-01-30T07:45:47;12.00;;;10.00;;
2123;SDS011;1068;52.460;13.528;2024-01-30T07:48:15;13.73;;;9.48;;
2123;SDS011;1068;52.460;13.528;2024-01-30T07:50:42;11.75;;;8.35;;
2123;SDS011;1068;52.460;13.528;2024-01-30T07:53:09;11.68;;;9.52;;
2123;SDS011;1068;52.460;13.528;2024-01-30T07:55:36;12.52;;;9.35;;
2123;SDS011;1068;52.460;13.528;2024-01-30T07:58:04;11.95;;;8.80;;
2123;SDS011;1068;52.460;13.528;2024-01-30T08:00:31;15.57;;;11.32;;
2123;SDS011;1068;52.460;13.528;2024-01-30T08:02:58;15.90;;;9.60;;
2123;SDS011;1068;52.460;13.528;2024-01-30T08:05:26;12.60;;;9.52;;
2123;SDS011;1068;52.460;13.528;2024-01-30T08:07:53;12.43;;;9.18;;
2123;SDS011;1068;52.460;13.528;2024-01-30T08:10:20;13.52;;;9.23;;
2123;SDS011;1068;52.460;13.528;2024-01-30T08:12:47;12.10;;;8.88;;
2123;SDS011;1068;52.460;13.528;2024-01-30T08:15:14;13.02;;;9.25;;
2123;SDS011;1068;52.460;13.528;2024-01-30T08:17:41;12.07;;;9.18;;
2123;SDS011;1068;52.460;13.528;2024-01-30T08:20:10;15.20;;;9.68;;
2123;SDS011;1068;52.460;13.528;2024-01-30T08:22:39;12.68;;;9.27;;
2123;SDS011;1068;52.460;13.528;2024-01-30T08:25:06;12.27;;;8.77;;
2123;SDS011;1068;52.460;13.528;2024-01-30T08:27:34;13.95;;;9.55;;
2123;SDS011;1068;52.460;13.528;2024-01-30T08:30:03;10.65;;;9.40;;
2123;SDS011;1068;52.460;13.528;2024-01-30T08:32:32;13.10;;;8.70;;
2123;SDS011;1068;52.460;13.528;2024-01-30T08:34:59;14.85;;;9.70;;
2123;SDS011;1068;52.460;13.528;2024-01-30T08:37:28;16.85;;;9.30;;
2123;SDS011;1068;52.460;13.528;2024-01-30T08:39:56;10.13;;;9.05;;
2123;SDS011;1068;52.460;13.528;2024-01-30T08:42:23;15.00;;;8.88;;
2123;SDS011;1068;52.460;13.528;2024-01-30T08:44:50;12.32;;;9.02;;
2123;SDS011;1068;52.460;13.528;2024-01-30T08:47:18;19.08;;;9.88;;
2123;SDS011;1068;52.460;13.528;2024-01-30T08:49:45;10.90;;;8.38;;
2123;SDS011;1068;52.460;13.528;2024-01-30T08:52:12;16.45;;;9.00;;
2123;SDS011;1068;52.460;13.528;2024-01-30T08:54:39;14.80;;;9.33;;
2123;SDS011;1068;52.460;13.528;2024-01-30T08:57:07;11.13;;;8.30;;
2123;SDS011;1068;52.460;13.528;2024-01-30T08:59:34;13.00;;;9.05;;
2123;SDS011;1068;52.460;13.528;2024-01-30T09:02:01;15.47;;;9.83;;
2123;SDS011;1068;52.460;13.528;2024-01-30T09:04:29;17.00;;;10.48;;
2123;SDS011;1068;52.460;13.528;2024-01-30T09:06:56;11.43;;;8.80;;
2123;SDS011;1068;52.460;13.528;2024-01-30T09:09:23;11.57;;;8.40;;
2123;SDS011;1068;52.460;13.528;2024-01-30T09:11:50;11.30;;;7.80;;
2123;SDS011;1068;52.460;13.528;2024-01-30T09:14:18;12.33;;;8.40;;
2123;SDS011;1068;52.460;13.528;2024-01-30T09:16:45;16.05;;;9.70;;
2123;SDS011;1068;52.460;13.528;2024-01-30T09:19:14;14.23;;;8.60;;
2123;SDS011;1068;52.460;13.528;2024-01-30T09:21:41;11.82;;;7.95;;
2123;SDS011;1068;52.460;13.528;2024-01-30T09:24:07;9.63;;;7.80;;
2123;SDS011;1068;52.460;13.528;2024-01-30T09:26:34;9.20;;;8.17;;
2123;SDS011;1068;52.460;13.528;2024-01-30T09:29:02;13.53;;;7.90;;
2123;SDS011;1068;52.460;13.528;2024-01-30T09:31:30;9.40;;;7.57;;
2123;SDS011;1068;52.460;13.528;2024-01-30T09:33:57;11.00;;;7.77;;
2123;SDS011;1068;52.460;13.528;2024-01-30T09:36:24;9.50;;;7.80;;
2123;SDS011;1068;52.460;13.528;2024-01-30T09:38:52;14.33;;;8.67;;
2123;SDS011;1068;52.460;13.528;2024-01-30T09:41:19;9.47;;;7.33;;
2123;SDS011;1068;52.460;13.528;2024-01-30T09:43:47;8.33;;;7.10;;
2123;SDS011;1068;52.460;13.528;2024-01-30T09:46:14;16.10;;;8.27;;
2123;SDS011;1068;52.460;13.528;2024-01-30T09:48:44;11.23;;;7.43;;
2123;SDS011;1068;52.460;13.528;2024-01-30T09:51:13;9.10;;;8.03;;
2123;SDS011;1068;52.460;13.528;2024-01-30T09:53:41;12.77;;;8.80;;
2123;SDS011;1068;52.460;13.528;2024-01-30T09:56:09;9.63;;;7.37;;
2123;SDS011;1068;52.460;13.528;2024-01-30T09:58:36;11.97;;;8.43;;
2123;SDS011;1068;52.460;13.528;2024-01-30T10:01:04;17.13;;;8.20;;
2123;SDS011;1068;52.460;13.528;2024-01-30T10:03:31;11.10;;;8.57;;
2123;SDS011;1068;52.460;13.528;2024-01-30T10:06:00;15.37;;;7.90;;
2123;SDS011;1068;52.460;13.528;2024-01-30T10:08:27;9.67;;;7.53;;
2123;SDS011;1068;52.460;13.528;2024-01-30T10:10:54;11.93;;;7.73;;
2123;SDS011;1068;52.460;13.528;2024-01-30T10:13:22;14.93;;;7.67;;
2123;SDS011;1068;52.460;13.528;2024-01-30T10:15:48;9.20;;;7.23;;
2123;SDS011;1068;52.460;13.528;2024-01-30T10:18:17;13.90;;;7.50;;
2123;SDS011;1068;52.460;13.528;2024-01-30T10:20:44;10.93;;;6.50;;
2123;SDS011;1068;52.460;13.528;2024-01-30T10:23:12;7.17;;;6.47;;
2123;SDS011;1068;52.460;13.528;2024-01-30T10:25:39;11.30;;;7.90;;
2123;SDS011;1068;52.460;13.528;2024-01-30T10:28:07;9.80;;;7.13;;
2123;SDS011;1068;52.460;13.528;2024-01-30T10:30:33;8.13;;;6.87;;
2123;SDS011;1068;52.460;13.528;2024-01-30T10:33:00;10.47;;;7.50;;
2123;SDS011;1068;52.460;13.528;2024-01-30T10:35:27;7.77;;;6.90;;
2123;SDS011;1068;52.460;13.528;2024-01-30T10:37:55;8.63;;;6.50;;
2123;SDS011;1068;52.460;13.528;2024-01-30T10:40:26;8.07;;;6.43;;
2123;SDS011;1068;52.460;13.528;2024-01-30T10:42:54;15.07;;;6.27;;
2123;SDS011;1068;52.460;13.528;2024-01-30T10:45:22;9.97;;;7.47;;
2123;SDS011;1068;52.460;13.528;2024-01-30T10:47:49;9.83;;;7.50;;
2123;SDS011;1068;52.460;13.528;2024-01-30T10:50:16;9.80;;;7.50;;
2123;SDS011;1068;52.460;13.528;2024-01-30T10:52:43;6.70;;;5.70;;
2123;SDS011;1068;52.460;13.528;2024-01-30T10:55:11;10.33;;;7.10;;
2123;SDS011;1068;52.460;13.528;2024-01-30T10:57:40;7.83;;;6.77;;
2123;SDS011;1068;52.460;13.528;2024-01-30T11:00:08;9.93;;;7.13;;
2123;SDS011;1068;52.460;13.528;2024-01-30T11:02:36;8.70;;;7.07;;
2123;SDS011;1068;52.460;13.528;2024-01-30T11:05:04;8.30;;;6.03;;
2123;SDS011;1068;52.460;13.528;2024-01-30T11:07:31;7.87;;;6.50;;
2123;SDS011;1068;52.460;13.528;2024-01-30T11:10:02;12.67;;;7.40;;
2123;SDS011;1068;52.460;13.528;2024-01-30T11:12:29;7.10;;;5.73;;
2123;SDS011;1068;52.460;13.528;2024-01-30T11:15:02;7.00;;;6.30;;
2123;SDS011;1068;52.460;13.528;2024-01-30T11:17:39;9.67;;;6.67;;
2123;SDS011;1068;52.460;13.528;2024-01-30T11:20:09;8.60;;;5.93;;
2123;SDS011;1068;52.460;13.528;2024-01-30T11:22:36;6.93;;;5.50;;
2123;SDS011;1068;52.460;13.528;2024-01-30T11:25:03;5.93;;;5.43;;
2123;SDS011;1068;52.460;13.528;2024-01-30T11:27:30;7.63;;;6.37;;
2123;SDS011;1068;52.460;13.528;2024-01-30T11:30:00;10.83;;;7.33;;
2123;SDS011;1068;52.460;13.528;2024-01-30T11:32:29;10.67;;;6.53;;
2123;SDS011;1068;52.460;13.528;2024-01-30T11:34:56;7.10;;;5.90;;
2123;SDS011;1068;52.460;13.528;2024-01-30T11:37:24;12.30;;;6.27;;
2123;SDS011;1068;52.460;13.528;2024-01-30T11:39:52;10.67;;;6.90;;
2123;SDS011;1068;52.460;13.528;2024-01-30T11:42:21;9.00;;;7.00;;
2123;SDS011;1068;52.460;13.528;2024-01-30T11:44:49;8.30;;;5.40;;
2123;SDS011;1068;52.460;13.528;2024-01-30T11:47:16;8.20;;;5.70;;
2123;SDS011;1068;52.460;13.528;2024-01-30T11:49:45;11.33;;;6.67;;
2123;SDS011;1068;52.460;13.528;2024-01-30T11:52:12;11.90;;;7.00;;
2123;SDS011;1068;52.460;13.528;2024-01-30T11:54:40;14.40;;;6.50;;
2123;SDS011;1068;52.460;13.528;2024-01-30T11:57:07;11.50;;;6.73;;
2123;SDS011;1068;52.460;13.528;2024-01-30T11:59:34;9.80;;;6.60;;
2123;SDS011;1068;52.460;13.528;2024-01-30T12:02:00;8.67;;;7.10;;
2123;SDS011;1068;52.460;13.528;2024-01-30T12:04:28;8.30;;;6.57;;
2123;SDS011;1068;52.460;13.528;2024-01-30T12:06:56;15.43;;;7.80;;
2123;SDS011;1068;52.460;13.528;2024-01-30T12:09:23;9.50;;;6.47;;
2123;SDS011;1068;52.460;13.528;2024-01-30T12:11:50;7.50;;;5.60;;
2123;SDS011;1068;52.460;13.528;2024-01-30T12:14:17;9.03;;;6.30;;
2123;SDS011;1068;52.460;13.528;2024-01-30T12:16:48;8.17;;;6.40;;
2123;SDS011;1068;52.460;13.528;2024-01-30T12:19:20;11.20;;;6.60;;
2123;SDS011;1068;52.460;13.528;2024-01-30T12:21:48;11.03;;;6.20;;
2123;SDS011;1068;52.460;13.528;2024-01-30T12:24:21;8.40;;;7.17;;
2123;SDS011;1068;52.460;13.528;2024-01-30T12:26:48;9.77;;;5.40;;
2123;SDS011;1068;52.460;13.528;2024-01-30T12:29:16;7.77;;;5.57;;
2123;SDS011;1068;52.460;13.528;2024-01-30T12:31:43;7.27;;;6.20;;
2123;SDS011;1068;52.460;13.528;2024-01-30T12:34:13;11.07;;;5.70;;
2123;SDS011;1068;52.460;13.528;2024-01-30T12:36:40;13.70;;;5.67;;
2123;SDS011;1068;52.460;13.528;2024-01-30T12:39:10;5.57;;;4.87;;
2123;SDS011;1068;52.460;13.528;2024-01-30T12:41:39;7.50;;;5.60;;
2123;SDS011;1068;52.460;13.528;2024-01-30T12:44:06;14.10;;;5.83;;
2123;SDS011;1068;52.460;13.528;2024-01-30T12:46:33;6.70;;;5.37;;
2123;SDS011;1068;52.460;13.528;2024-01-30T12:49:00;6.30;;;4.97;;
2123;SDS011;1068;52.460;13.528;2024-01-30T12:51:27;6.00;;;5.43;;
2123;SDS011;1068;52.460;13.528;2024-01-30T12:53:54;9.20;;;5.60;;
2123;SDS011;1068;52.460;13.528;2024-01-30T12:56:22;6.37;;;5.67;;
2123;SDS011;1068;52.460;13.528;2024-01-30T12:58:50;7.70;;;5.17;;
2123;SDS011;1068;52.460;13.528;2024-01-30T13:01:17;6.60;;;5.90;;
2123;SDS011;1068;52.460;13.528;2024-01-30T13:03:44;9.13;;;5.67;;
2123;SDS011;1068;52.460;13.528;2024-01-30T13:06:11;5.17;;;4.67;;
2123;SDS011;1068;52.460;13.528;2024-01-30T13:08:38;5.70;;;5.20;;
2123;SDS011;1068;52.460;13.528;2024-01-30T13:11:05;8.90;;;5.70;;
2123;SDS011;1068;52.460;13.528;2024-01-30T13:13:32;7.97;;;5.10;;
2123;SDS011;1068;52.460;13.528;2024-01-30T13:16:01;5.80;;;5.20;;
2123;SDS011;1068;52.460;13.528;2024-01-30T13:18:29;7.40;;;5.63;;
2123;SDS011;1068;52.460;13.528;2024-01-30T13:20:56;12.40;;;6.10;;
2123;SDS011;1068;52.460;13.528;2024-01-30T13:23:23;7.90;;;5.70;;
2123;SDS011;1068;52.460;13.528;2024-01-30T13:25:50;7.27;;;5.87;;
2123;SDS011;1068;52.460;13.528;2024-01-30T13:28:18;5.67;;;5.10;;
2123;SDS011;1068;52.460;13.528;2024-01-30T13:30:45;7.83;;;5.80;;
2123;SDS011;1068;52.460;13.528;2024-01-30T13:33:14;8.17;;;5.90;;
2123;SDS011;1068;52.460;13.528;2024-01-30T13:35:40;7.57;;;5.60;;
2123;SDS011;1068;52.460;13.528;2024-01-30T13:38:07;5.97;;;4.83;;
2123;SDS011;1068;52.460;13.528;2024-01-30T13:40:35;6.80;;;5.07;;
2123;SDS011;1068;52.460;13.528;2024-01-30T13:43:02;7.10;;;6.40;;
2123;SDS011;1068;52.460;13.528;2024-01-30T13:45:29;8.67;;;5.60;;
2123;SDS011;1068;52.460;13.528;2024-01-30T13:47:56;6.83;;;4.90;;
2123;SDS011;1068;52.460;13.528;2024-01-30T13:50:25;5.80;;;5.30;;
2123;SDS011;1068;52.460;13.528;2024-01-30T13:52:52;5.80;;;4.87;;
2123;SDS011;1068;52.460;13.528;2024-01-30T13:55:19;5.30;;;4.80;;
2123;SDS011;1068;52.460;13.528;2024-01-30T13:57:46;8.57;;;5.10;;
2123;SDS011;1068;52.460;13.528;2024-01-30T14:00:13;6.50;;;5.00;;
2123;SDS011;1068;52.460;13.528;2024-01-30T14:02:41;7.30;;;5.53;;
2123;SDS011;1068;52.460;13.528;2024-01-30T14:05:08;11.63;;;4.87;;
2123;SDS011;1068;52.460;13.528;2024-01-30T14:07:36;9.53;;;5.80;;
2123;SDS011;1068;52.460;13.528;2024-01-30T14:10:05;6.37;;;5.73;;
2123;SDS011;1068;52.460;13.528;2024-01-30T14:12:32;6.13;;;5.53;;
2123;SDS011;1068;52.460;13.528;2024-01-30T14:14:59;6.93;;;6.13;;
2123;SDS011;1068;52.460;13.528;2024-01-30T14:17:26;6.97;;;6.27;;
2123;SDS011;1068;52.460;13.528;2024-01-30T14:19:53;5.60;;;5.00;;
2123;SDS011;1068;52.460;13.528;2024-01-30T14:22:20;7.57;;;5.80;;
2123;SDS011;1068;52.460;13.528;2024-01-30T14:24:48;6.57;;;5.83;;
2123;SDS011;1068;52.460;13.528;2024-01-30T14:27:15;5.90;;;5.27;;
2123;SDS011;1068;52.460;13.528;2024-01-30T14:29:42;6.17;;;5.57;;
2123;SDS011;1068;52.460;13.528;2024-01-30T14:32:09;9.73;;;5.53;;
2123;SDS011;1068;52.460;13.528;2024-01-30T14:34:36;6.90;;;6.13;;
2123;SDS011;1068;52.460;13.528;2024-01-30T14:37:04;7.00;;;5.30;;
2123;SDS011;1068;52.460;13.528;2024-01-30T14:39:31;7.53;;;6.07;;
2123;SDS011;1068;52.460;13.528;2024-01-30T14:42:00;9.07;;;5.80;;
2123;SDS011;1068;52.460;13.528;2024-01-30T14:44:27;6.77;;;5.70;;
2123;SDS011;1068;52.460;13.528;2024-01-30T14:46:54;6.93;;;5.20;;
2123;SDS011;1068;52.460;13.528;2024-01-30T14:49:21;8.63;;;6.53;;
2123;SDS011;1068;52.460;13.528;2024-01-30T14:51:47;8.90;;;6.00;;
2123;SDS011;1068;52.460;13.528;2024-01-30T14:54:14;7.07;;;5.33;;
2123;SDS011;1068;52.460;13.528;2024-01-30T14:56:41;8.90;;;5.50;;